sensor_id;sensor_type;location;lat;lon;timestamp;P1;durP1;ratioP1;P2;durP2;ratioP2
22711;SDS011;11523;50.390;8.072;2023-11-18T00:01:44;35.90;;;17.65;;
22711;SDS011;11523;50.390;8.072;2023-11-18T00:04:10;45.53;;;19.52;;
22711;SDS011;11523;50.390;8.072;2023-11-18T00:06:43;36.25;;;18.60;;
22711;SDS011;11523;50.390;8.072;2023-11-18T00:09:10;47.67;;;20.10;;
22711;SDS011;11523;50.390;8.072;2023-11-18T00:11:38;42.30;;;21.15;;
22711;SDS011;11523;50.390;8.072;2023-11-18T00:14:04;47.15;;;21.70;;
22711;SDS011;11523;50.390;8.072;2023-11-18T00:16:29;54.67;;;20.23;;
22711;SDS011;11523;50.390;8.072;2023-11-18T00:18:56;62.67;;;21.40;;
22711;SDS011;11523;50.390;8.072;2023-11-18T00:21:23;49.65;;;20.20;;
22711;SDS011;11523;50.390;8.072;2023-11-18T00:23:49;60.95;;;19.75;;
22711;SDS011;11523;50.390;8.072;2023-11-18T00:26:16;66.70;;;21.02;;
22711;SDS011;11523;50.390;8.072;2023-11-18T00:28:42;72.72;;;19.67;;
22711;SDS011;11523;50.390;8.072;2023-11-18T00:31:08;162.85;;;21.80;;
22711;SDS011;11523;50.390;8.072;2023-11-18T00:33:34;113.15;;;20.30;;
22711;SDS011;11523;50.390;8.072;2023-11-18T00:36:00;145.55;;;20.88;;
22711;SDS011;11523;50.390;8.072;2023-11-18T00:38:26;144.70;;;20.65;;
22711;SDS011;11523;50.390;8.072;2023-11-18T00:40:52;87.82;;;19.90;;
22711;SDS011;11523;50.390;8.072;2023-11-18T00:43:18;106.28;;;19.30;;
22711;SDS011;11523;50.390;8.072;2023-11-18T00:45:44;103.70;;;20.58;;
22711;SDS011;11523;50.390;8.072;2023-11-18T00:48:10;73.90;;;19.20;;
22711;SDS011;11523;50.390;8.072;2023-11-18T00:50:36;72.22;;;19.02;;
22711;SDS011;11523;50.390;8.072;2023-11-18T00:53:02;74.93;;;18.67;;
22711;SDS011;11523;50.390;8.072;2023-11-18T00:55:28;67.45;;;18.00;;
22711;SDS011;11523;50.390;8.072;2023-11-18T00:57:53;79.35;;;18.30;;
22711;SDS011;11523;50.390;8.072;2023-11-18T01:00:19;83.15;;;17.92;;
22711;SDS011;11523;50.390;8.072;2023-11-18T01:02:46;65.57;;;19.00;;
22711;SDS011;11523;50.390;8.072;2023-11-18T01:05:13;105.63;;;19.55;;
22711;SDS011;11523;50.390;8.072;2023-11-18T01:07:40;68.07;;;18.05;;
22711;SDS011;11523;50.390;8.072;2023-11-18T01:10:06;56.50;;;18.95;;
22711;SDS011;11523;50.390;8.072;2023-11-18T01:12:33;60.72;;;17.55;;
22711;SDS011;11523;50.390;8.072;2023-11-18T01:14:59;85.40;;;17.67;;
22711;SDS011;11523;50.390;8.072;2023-11-18T01:17:25;77.65;;;17.48;;
22711;SDS011;11523;50.390;8.072;2023-11-18T01:19:51;82.43;;;18.10;;
22711;SDS011;11523;50.390;8.072;2023-11-18T01:22:17;51.95;;;17.00;;
22711;SDS011;11523;50.390;8.072;2023-11-18T01:24:43;39.83;;;16.70;;
22711;SDS011;11523;50.390;8.072;2023-11-18T01:27:10;44.90;;;16.83;;
22711;SDS011;11523;50.390;8.072;2023-11-18T01:29:36;53.10;;;16.33;;
22711;SDS011;11523;50.390;8.072;2023-11-18T01:32:04;74.30;;;17.73;;
22711;SDS011;11523;50.390;8.072;2023-11-18T01:34:34;79.88;;;16.38;;
22711;SDS011;11523;50.390;8.072;2023-11-18T01:37:00;68.03;;;17.25;;
22711;SDS011;11523;50.390;8.072;2023-11-18T01:39:26;67.90;;;16.83;;
22711;SDS011;11523;50.390;8.072;2023-11-18T01:41:52;42.75;;;16.33;;
22711;SDS011;11523;50.390;8.072;2023-11-18T01:44:18;50.33;;;16.63;;
22711;SDS011;11523;50.390;8.072;2023-11-18T01:46:44;34.15;;;15.30;;
22711;SDS011;11523;50.390;8.072;2023-11-18T01:49:13;41.55;;;16.40;;
22711;SDS011;11523;50.390;8.072;2023-11-18T01:51:41;38.33;;;18.23;;
22711;SDS011;11523;50.390;8.072;2023-11-18T01:54:07;82.95;;;17.65;;
22711;SDS011;11523;50.390;8.072;2023-11-18T01:56:33;94.35;;;17.02;;
22711;SDS011;11523;50.390;8.072;2023-11-18T01:58:59;60.03;;;15.23;;
22711;SDS011;11523;50.390;8.072;2023-11-18T02:01:26;70.85;;;17.13;;
22711;SDS011;11523;50.390;8.072;2023-11-18T02:03:53;91.70;;;15.93;;
22711;SDS011;11523;50.390;8.072;2023-11-18T02:06:19;94.32;;;17.77;;
22711;SDS011;11523;50.390;8.072;2023-11-18T02:08:46;66.55;;;17.10;;
22711;SDS011;11523;50.390;8.072;2023-11-18T02:13:41;106.00;;;17.58;;
22711;SDS011;11523;50.390;8.072;2023-11-18T02:16:09;69.80;;;17.15;;
22711;SDS011;11523;50.390;8.072;2023-11-18T02:18:36;67.63;;;18.67;;
22711;SDS011;11523;50.390;8.072;2023-11-18T02:21:05;114.82;;;18.90;;
22711;SDS011;11523;50.390;8.072;2023-11-18T02:23:33;60.72;;;16.98;;
22711;SDS011;11523;50.390;8.072;2023-11-18T02:25:59;68.15;;;18.70;;
22711;SDS011;11523;50.390;8.072;2023-11-18T02:28:28;79.60;;;18.80;;
22711;SDS011;11523;50.390;8.072;2023-11-18T02:30:56;57.03;;;18.33;;
22711;SDS011;11523;50.390;8.072;2023-11-18T02:33:36;67.00;;;17.83;;
22711;SDS011;11523;50.390;8.072;2023-11-18T02:39:15;62.58;;;17.23;;
22711;SDS011;11523;50.390;8.072;2023-11-18T02:41:44;92.18;;;18.27;;
22711;SDS011;11523;50.390;8.072;2023-11-18T02:44:13;104.53;;;18.77;;
22711;SDS011;11523;50.390;8.072;2023-11-18T02:46:53;69.63;;;17.85;;
22711;SDS011;11523;50.390;8.072;2023-11-18T02:49:19;60.65;;;16.45;;
22711;SDS011;11523;50.390;8.072;2023-11-18T02:51:51;60.72;;;16.98;;
22711;SDS011;11523;50.390;8.072;2023-11-18T02:54:17;46.28;;;16.30;;
22711;SDS011;11523;50.390;8.072;2023-11-18T02:56:43;37.53;;;17.48;;
22711;SDS011;11523;50.390;8.072;2023-11-18T02:59:09;45.67;;;18.15;;
22711;SDS011;11523;50.390;8.072;2023-11-18T03:01:35;36.42;;;15.52;;
22711;SDS011;11523;50.390;8.072;2023-11-18T03:04:04;41.42;;;16.30;;
22711;SDS011;11523;50.390;8.072;2023-11-18T03:06:30;33.85;;;16.67;;
22711;SDS011;11523;50.390;8.072;2023-11-18T03:08:57;36.92;;;15.85;;
22711;SDS011;11523;50.390;8.072;2023-11-18T03:11:23;68.55;;;17.33;;
22711;SDS011;11523;50.390;8.072;2023-11-18T03:13:49;39.47;;;14.10;;
22711;SDS011;11523;50.390;8.072;2023-11-18T03:16:16;73.05;;;16.48;;
22711;SDS011;11523;50.390;8.072;2023-11-18T03:18:42;35.90;;;15.00;;
22711;SDS011;11523;50.390;8.072;2023-11-18T03:21:11;43.33;;;14.23;;
22711;SDS011;11523;50.390;8.072;2023-11-18T03:23:38;55.72;;;15.93;;
22711;SDS011;11523;50.390;8.072;2023-11-18T03:26:04;51.90;;;16.55;;
22711;SDS011;11523;50.390;8.072;2023-11-18T03:28:30;58.55;;;16.35;;
22711;SDS011;11523;50.390;8.072;2023-11-18T03:30:56;54.25;;;15.18;;
22711;SDS011;11523;50.390;8.072;2023-11-18T03:33:22;31.95;;;15.88;;
22711;SDS011;11523;50.390;8.072;2023-11-18T03:35:48;32.65;;;16.05;;
22711;SDS011;11523;50.390;8.072;2023-11-18T03:38:14;35.53;;;16.67;;
22711;SDS011;11523;50.390;8.072;2023-11-18T03:40:42;56.67;;;16.50;;
22711;SDS011;11523;50.390;8.072;2023-11-18T03:43:10;41.72;;;15.43;;
22711;SDS011;11523;50.390;8.072;2023-11-18T03:45:38;55.58;;;16.65;;
22711;SDS011;11523;50.390;8.072;2023-11-18T03:48:04;52.42;;;16.90;;
22711;SDS011;11523;50.390;8.072;2023-11-18T03:50:31;49.40;;;16.88;;
22711;SDS011;11523;50.390;8.072;2023-11-18T03:52:56;40.58;;;16.30;;
22711;SDS011;11523;50.390;8.072;2023-11-18T03:55:23;43.88;;;17.23;;
22711;SDS011;11523;50.390;8.072;2023-11-18T03:57:50;41.20;;;17.40;;
22711;SDS011;11523;50.390;8.072;2023-11-18T04:00:17;36.17;;;16.08;;
22711;SDS011;11523;50.390;8.072;2023-11-18T04:02:43;51.08;;;16.23;;
22711;SDS011;11523;50.390;8.072;2023-11-18T04:05:11;33.03;;;16.35;;
22711;SDS011;11523;50.390;8.072;2023-11-18T04:07:37;44.50;;;17.08;;
22711;SDS011;11523;50.390;8.072;2023-11-18T04:10:07;61.30;;;17.00;;
22711;SDS011;11523;50.390;8.072;2023-11-18T04:12:35;44.42;;;16.05;;
22711;SDS011;11523;50.390;8.072;2023-11-18T04:15:01;34.22;;;17.02;;
22711;SDS011;11523;50.390;8.072;2023-11-18T04:17:29;41.47;;;17.35;;
22711;SDS011;11523;50.390;8.072;2023-11-18T04:19:55;49.72;;;16.80;;
22711;SDS011;11523;50.390;8.072;2023-11-18T04:22:21;42.92;;;17.63;;
22711;SDS011;11523;50.390;8.072;2023-11-18T04:24:48;41.78;;;16.42;;
22711;SDS011;11523;50.390;8.072;2023-11-18T04:27:14;36.67;;;16.10;;
22711;SDS011;11523;50.390;8.072;2023-11-18T04:29:40;36.85;;;15.98;;
22711;SDS011;11523;50.390;8.072;2023-11-18T04:32:06;37.92;;;17.40;;
22711;SDS011;11523;50.390;8.072;2023-11-18T04:34:36;42.53;;;16.17;;
22711;SDS011;11523;50.390;8.072;2023-11-18T04:37:02;42.67;;;17.48;;
22711;SDS011;11523;50.390;8.072;2023-11-18T04:39:28;40.25;;;16.50;;
22711;SDS011;11523;50.390;8.072;2023-11-18T04:41:57;43.08;;;16.58;;
22711;SDS011;11523;50.390;8.072;2023-11-18T04:44:23;39.15;;;16.85;;
22711;SDS011;11523;50.390;8.072;2023-11-18T04:46:48;35.30;;;15.65;;
22711;SDS011;11523;50.390;8.072;2023-11-18T04:49:15;42.80;;;15.85;;
22711;SDS011;11523;50.390;8.072;2023-11-18T04:51:41;36.05;;;15.82;;
22711;SDS011;11523;50.390;8.072;2023-11-18T04:54:07;44.35;;;15.75;;
22711;SDS011;11523;50.390;8.072;2023-11-18T04:56:33;39.92;;;16.17;;
22711;SDS011;11523;50.390;8.072;2023-11-18T04:59:00;40.20;;;17.55;;
22711;SDS011;11523;50.390;8.072;2023-11-18T05:01:26;38.20;;;17.85;;
22711;SDS011;11523;50.390;8.072;2023-11-18T05:03:52;39.13;;;17.50;;
22711;SDS011;11523;50.390;8.072;2023-11-18T05:06:18;41.95;;;16.65;;
22711;SDS011;11523;50.390;8.072;2023-11-18T05:08:45;35.10;;;16.35;;
22711;SDS011;11523;50.390;8.072;2023-11-18T05:11:11;34.50;;;15.05;;
22711;SDS011;11523;50.390;8.072;2023-11-18T05:13:43;34.05;;;14.10;;
22711;SDS011;11523;50.390;8.072;2023-11-18T05:16:10;35.30;;;15.38;;
22711;SDS011;11523;50.390;8.072;2023-11-18T05:18:36;35.80;;;14.98;;
22711;SDS011;11523;50.390;8.072;2023-11-18T05:21:03;37.83;;;15.23;;
22711;SDS011;11523;50.390;8.072;2023-11-18T05:23:35;40.55;;;14.15;;
22711;SDS011;11523;50.390;8.072;2023-11-18T05:26:01;30.88;;;15.25;;
22711;SDS011;11523;50.390;8.072;2023-11-18T05:28:31;31.92;;;14.25;;
22711;SDS011;11523;50.390;8.072;2023-11-18T05:30:57;34.45;;;16.02;;
22711;SDS011;11523;50.390;8.072;2023-11-18T05:33:26;37.05;;;15.07;;
22711;SDS011;11523;50.390;8.072;2023-11-18T05:35:53;33.20;;;15.45;;
22711;SDS011;11523;50.390;8.072;2023-11-18T05:38:19;32.10;;;16.23;;
22711;SDS011;11523;50.390;8.072;2023-11-18T05:40:51;32.20;;;15.75;;
22711;SDS011;11523;50.390;8.072;2023-11-18T05:43:26;36.55;;;16.90;;
22711;SDS011;11523;50.390;8.072;2023-11-18T05:45:56;44.03;;;16.63;;
22711;SDS011;11523;50.390;8.072;2023-11-18T05:48:41;35.38;;;15.48;;
22711;SDS011;11523;50.390;8.072;2023-11-18T05:51:07;43.58;;;15.95;;
22711;SDS011;11523;50.390;8.072;2023-11-18T05:53:33;37.17;;;17.25;;
22711;SDS011;11523;50.390;8.072;2023-11-18T05:56:01;38.40;;;15.90;;
22711;SDS011;11523;50.390;8.072;2023-11-18T05:58:27;41.35;;;15.73;;
22711;SDS011;11523;50.390;8.072;2023-11-18T06:00:53;41.17;;;15.65;;
22711;SDS011;11523;50.390;8.072;2023-11-18T06:03:19;37.95;;;16.23;;
22711;SDS011;11523;50.390;8.072;2023-11-18T06:05:45;60.10;;;19.80;;
22711;SDS011;11523;50.390;8.072;2023-11-18T06:08:11;37.85;;;15.30;;
22711;SDS011;11523;50.390;8.072;2023-11-18T06:10:37;32.85;;;15.05;;
22711;SDS011;11523;50.390;8.072;2023-11-18T06:13:03;30.70;;;13.73;;
22711;SDS011;11523;50.390;8.072;2023-11-18T06:15:29;29.05;;;14.35;;
22711;SDS011;11523;50.390;8.072;2023-11-18T06:17:55;41.78;;;15.02;;
22711;SDS011;11523;50.390;8.072;2023-11-18T06:20:21;27.23;;;14.27;;
22711;SDS011;11523;50.390;8.072;2023-11-18T06:22:48;35.65;;;14.68;;
22711;SDS011;11523;50.390;8.072;2023-11-18T06:25:14;42.75;;;14.23;;
22711;SDS011;11523;50.390;8.072;2023-11-18T06:27:43;47.67;;;14.80;;
22711;SDS011;11523;50.390;8.072;2023-11-18T06:30:11;31.45;;;15.32;;
22711;SDS011;11523;50.390;8.072;2023-11-18T06:32:37;31.35;;;15.05;;
22711;SDS011;11523;50.390;8.072;2023-11-18T06:35:04;35.72;;;15.60;;
22711;SDS011;11523;50.390;8.072;2023-11-18T06:37:33;46.97;;;14.75;;
22711;SDS011;11523;50.390;8.072;2023-11-18T06:39:59;38.83;;;14.70;;
22711;SDS011;11523;50.390;8.072;2023-11-18T06:42:26;41.50;;;15.35;;
22711;SDS011;11523;50.390;8.072;2023-11-18T06:44:51;35.80;;;15.45;;
22711;SDS011;11523;50.390;8.072;2023-11-18T06:47:17;33.13;;;14.85;;
22711;SDS011;11523;50.390;8.072;2023-11-18T06:49:44;39.33;;;15.98;;
22711;SDS011;11523;50.390;8.072;2023-11-18T06:52:12;42.53;;;16.00;;
22711;SDS011;11523;50.390;8.072;2023-11-18T06:54:44;38.30;;;15.27;;
22711;SDS011;11523;50.390;8.072;2023-11-18T06:57:10;39.75;;;16.80;;
22711;SDS011;11523;50.390;8.072;2023-11-18T06:59:37;46.67;;;15.43;;
22711;SDS011;11523;50.390;8.072;2023-11-18T07:02:03;29.90;;;14.77;;
22711;SDS011;11523;50.390;8.072;2023-11-18T07:04:30;33.92;;;15.48;;
22711;SDS011;11523;50.390;8.072;2023-11-18T07:06:57;30.50;;;15.65;;
22711;SDS011;11523;50.390;8.072;2023-11-18T07:09:22;35.95;;;16.05;;
22711;SDS011;11523;50.390;8.072;2023-11-18T07:11:50;33.08;;;17.23;;
22711;SDS011;11523;50.390;8.072;2023-11-18T07:14:16;34.03;;;17.00;;
22711;SDS011;11523;50.390;8.072;2023-11-18T07:16:42;33.28;;;15.40;;
22711;SDS011;11523;50.390;8.072;2023-11-18T07:19:09;29.88;;;16.02;;
22711;SDS011;11523;50.390;8.072;2023-11-18T07:21:40;31.02;;;15.07;;
22711;SDS011;11523;50.390;8.072;2023-11-18T07:24:06;27.67;;;14.80;;
22711;SDS011;11523;50.390;8.072;2023-11-18T07:26:32;25.33;;;15.20;;
22711;SDS011;11523;50.390;8.072;2023-11-18T07:28:58;24.20;;;15.20;;
22711;SDS011;11523;50.390;8.072;2023-11-18T07:31:24;22.80;;;14.35;;
22711;SDS011;11523;50.390;8.072;2023-11-18T07:33:50;23.77;;;14.73;;
22711;SDS011;11523;50.390;8.072;2023-11-18T07:36:17;24.63;;;15.07;;
22711;SDS011;11523;50.390;8.072;2023-11-18T07:38:45;22.05;;;14.75;;
22711;SDS011;11523;50.390;8.072;2023-11-18T07:41:11;21.33;;;12.88;;
22711;SDS011;11523;50.390;8.072;2023-11-18T07:43:48;20.50;;;12.65;;
22711;SDS011;11523;50.390;8.072;2023-11-18T07:46:14;20.13;;;12.82;;
22711;SDS011;11523;50.390;8.072;2023-11-18T07:48:40;20.10;;;12.80;;
22711;SDS011;11523;50.390;8.072;2023-11-18T07:51:06;21.70;;;12.90;;
22711;SDS011;11523;50.390;8.072;2023-11-18T07:53:33;19.50;;;12.90;;
22711;SDS011;11523;50.390;8.072;2023-11-18T07:56:01;18.58;;;11.93;;
22711;SDS011;11523;50.390;8.072;2023-11-18T07:58:27;21.42;;;13.38;;
22711;SDS011;11523;50.390;8.072;2023-11-18T08:00:53;18.23;;;12.40;;
22711;SDS011;11523;50.390;8.072;2023-11-18T08:03:19;30.13;;;18.02;;
22711;SDS011;11523;50.390;8.072;2023-11-18T08:05:46;23.42;;;14.80;;
22711;SDS011;11523;50.390;8.072;2023-11-18T08:08:14;22.08;;;14.57;;
22711;SDS011;11523;50.390;8.072;2023-11-18T08:10:42;20.73;;;13.88;;
22711;SDS011;11523;50.390;8.072;2023-11-18T08:13:09;28.65;;;19.10;;
22711;SDS011;11523;50.390;8.072;2023-11-18T08:15:38;19.33;;;14.00;;
22711;SDS011;11523;50.390;8.072;2023-11-18T08:18:04;21.08;;;14.27;;
22711;SDS011;11523;50.390;8.072;2023-11-18T08:20:31;19.63;;;13.18;;
22711;SDS011;11523;50.390;8.072;2023-11-18T08:22:57;20.98;;;13.88;;
22711;SDS011;11523;50.390;8.072;2023-11-18T08:25:23;21.77;;;14.32;;
22711;SDS011;11523;50.390;8.072;2023-11-18T08:27:49;21.80;;;14.85;;
22711;SDS011;11523;50.390;8.072;2023-11-18T08:30:15;23.02;;;15.32;;
22711;SDS011;11523;50.390;8.072;2023-11-18T08:32:43;22.58;;;14.73;;
22711;SDS011;11523;50.390;8.072;2023-11-18T08:35:09;23.13;;;14.95;;
22711;SDS011;11523;50.390;8.072;2023-11-18T08:37:38;23.20;;;14.85;;
22711;SDS011;11523;50.390;8.072;2023-11-18T08:40:04;21.73;;;14.85;;
22711;SDS011;11523;50.390;8.072;2023-11-18T08:42:46;22.63;;;14.82;;
22711;SDS011;11523;50.390;8.072;2023-11-18T08:45:15;22.45;;;14.30;;
22711;SDS011;11523;50.390;8.072;2023-11-18T08:47:44;23.20;;;14.82;;
22711;SDS011;11523;50.390;8.072;2023-11-18T08:50:17;20.80;;;14.07;;
22711;SDS011;11523;50.390;8.072;2023-11-18T08:52:47;24.63;;;15.48;;
22711;SDS011;11523;50.390;8.072;2023-11-18T08:55:13;24.92;;;16.42;;
22711;SDS011;11523;50.390;8.072;2023-11-18T08:57:49;21.60;;;14.85;;
22711;SDS011;11523;50.390;8.072;2023-11-18T09:00:27;24.33;;;15.68;;
22711;SDS011;11523;50.390;8.072;2023-11-18T09:03:29;23.60;;;15.60;;
22711;SDS011;11523;50.390;8.072;2023-11-18T09:06:02;24.63;;;15.18;;
22711;SDS011;11523;50.390;8.072;2023-11-18T09:08:32;23.70;;;14.77;;
22711;SDS011;11523;50.390;8.072;2023-11-18T09:11:01;22.30;;;14.48;;
22711;SDS011;11523;50.390;8.072;2023-11-18T09:13:29;24.63;;;15.63;;
22711;SDS011;11523;50.390;8.072;2023-11-18T09:15:59;23.48;;;15.27;;
22711;SDS011;11523;50.390;8.072;2023-11-18T09:18:26;23.67;;;14.60;;
22711;SDS011;11523;50.390;8.072;2023-11-18T09:20:59;26.75;;;15.93;;
22711;SDS011;11523;50.390;8.072;2023-11-18T09:23:30;21.73;;;14.63;;
22711;SDS011;11523;50.390;8.072;2023-11-18T09:25:57;22.08;;;14.52;;
22711;SDS011;11523;50.390;8.072;2023-11-18T09:28:23;22.58;;;15.10;;
22711;SDS011;11523;50.390;8.072;2023-11-18T09:30:50;23.48;;;15.50;;
22711;SDS011;11523;50.390;8.072;2023-11-18T09:33:21;21.77;;;14.07;;
22711;SDS011;11523;50.390;8.072;2023-11-18T09:35:53;22.52;;;14.65;;
22711;SDS011;11523;50.390;8.072;2023-11-18T09:38:23;24.13;;;14.40;;
22711;SDS011;11523;50.390;8.072;2023-11-18T09:40:50;22.42;;;14.20;;
22711;SDS011;11523;50.390;8.072;2023-11-18T09:43:17;24.92;;;14.02;;
22711;SDS011;11523;50.390;8.072;2023-11-18T09:45:44;19.38;;;13.27;;
22711;SDS011;11523;50.390;8.072;2023-11-18T09:48:12;19.65;;;12.77;;
22711;SDS011;11523;50.390;8.072;2023-11-18T09:50:42;20.85;;;13.57;;
22711;SDS011;11523;50.390;8.072;2023-11-18T09:53:12;21.15;;;14.07;;
22711;SDS011;11523;50.390;8.072;2023-11-18T09:55:52;19.95;;;13.95;;
22711;SDS011;11523;50.390;8.072;2023-11-18T09:58:24;21.95;;;14.80;;
22711;SDS011;11523;50.390;8.072;2023-11-18T10:00:51;21.45;;;15.60;;
22711;SDS011;11523;50.390;8.072;2023-11-18T10:03:22;20.23;;;14.48;;
22711;SDS011;11523;50.390;8.072;2023-11-18T10:05:48;20.60;;;13.45;;
22711;SDS011;11523;50.390;8.072;2023-11-18T10:08:15;19.70;;;13.57;;
22711;SDS011;11523;50.390;8.072;2023-11-18T10:10:41;22.52;;;15.05;;
22711;SDS011;11523;50.390;8.072;2023-11-18T10:13:10;25.95;;;15.77;;
22711;SDS011;11523;50.390;8.072;2023-11-18T10:15:49;25.23;;;15.45;;
22711;SDS011;11523;50.390;8.072;2023-11-18T10:18:18;25.63;;;15.52;;
22711;SDS011;11523;50.390;8.072;2023-11-18T10:20:49;23.75;;;15.43;;
22711;SDS011;11523;50.390;8.072;2023-11-18T10:23:24;23.67;;;14.65;;
22711;SDS011;11523;50.390;8.072;2023-11-18T10:25:53;23.83;;;15.88;;
22711;SDS011;11523;50.390;8.072;2023-11-18T10:28:25;22.63;;;15.65;;
22711;SDS011;11523;50.390;8.072;2023-11-18T10:30:58;23.58;;;14.23;;
22711;SDS011;11523;50.390;8.072;2023-11-18T10:33:27;22.85;;;16.05;;
22711;SDS011;11523;50.390;8.072;2023-11-18T10:36:02;23.48;;;14.77;;
22711;SDS011;11523;50.390;8.072;2023-11-18T10:38:29;20.25;;;14.50;;
22711;SDS011;11523;50.390;8.072;2023-11-18T10:40:55;22.02;;;15.70;;
22711;SDS011;11523;50.390;8.072;2023-11-18T10:43:22;19.02;;;14.80;;
22711;SDS011;11523;50.390;8.072;2023-11-18T10:46:06;21.27;;;14.85;;
22711;SDS011;11523;50.390;8.072;2023-11-18T10:48:39;20.63;;;14.98;;
22711;SDS011;11523;50.390;8.072;2023-11-18T10:51:12;22.67;;;14.70;;
22711;SDS011;11523;50.390;8.072;2023-11-18T10:53:41;19.15;;;14.02;;
22711;SDS011;11523;50.390;8.072;2023-11-18T10:56:18;19.42;;;14.10;;
22711;SDS011;11523;50.390;8.072;2023-11-18T10:58:44;21.67;;;15.40;;
22711;SDS011;11523;50.390;8.072;2023-11-18T11:01:11;18.55;;;13.70;;
22711;SDS011;11523;50.390;8.072;2023-11-18T11:03:53;22.17;;;15.43;;
22711;SDS011;11523;50.390;8.072;2023-11-18T11:06:27;19.67;;;14.18;;
22711;SDS011;11523;50.390;8.072;2023-11-18T11:08:55;30.83;;;22.08;;
22711;SDS011;11523;50.390;8.072;2023-11-18T11:11:23;24.65;;;16.88;;
22711;SDS011;11523;50.390;8.072;2023-11-18T11:14:02;22.60;;;15.98;;
22711;SDS011;11523;50.390;8.072;2023-11-18T11:16:41;20.38;;;15.80;;
22711;SDS011;11523;50.390;8.072;2023-11-18T11:19:13;21.38;;;15.23;;
22711;SDS011;11523;50.390;8.072;2023-11-18T11:21:49;24.55;;;15.45;;
22711;SDS011;11523;50.390;8.072;2023-11-18T11:24:20;21.65;;;15.13;;
22711;SDS011;11523;50.390;8.072;2023-11-18T11:27:07;25.60;;;14.77;;
22711;SDS011;11523;50.390;8.072;2023-11-18T11:29:42;21.95;;;15.93;;
22711;SDS011;11523;50.390;8.072;2023-11-18T11:32:25;22.95;;;15.98;;
22711;SDS011;11523;50.390;8.072;2023-11-18T11:34:56;20.58;;;15.02;;
22711;SDS011;11523;50.390;8.072;2023-11-18T11:37:23;21.27;;;14.95;;
22711;SDS011;11523;50.390;8.072;2023-11-18T11:39:50;22.23;;;14.70;;
22711;SDS011;11523;50.390;8.072;2023-11-18T11:42:18;20.35;;;14.02;;
22711;SDS011;11523;50.390;8.072;2023-11-18T11:44:46;21.73;;;15.93;;
22711;SDS011;11523;50.390;8.072;2023-11-18T11:47:12;20.13;;;14.60;;
22711;SDS011;11523;50.390;8.072;2023-11-18T11:49:50;22.45;;;15.05;;
22711;SDS011;11523;50.390;8.072;2023-11-18T11:52:26;20.45;;;14.80;;
22711;SDS011;11523;50.390;8.072;2023-11-18T11:55:45;24.40;;;15.00;;
22711;SDS011;11523;50.390;8.072;2023-11-18T11:57:39;22.92;;;14.10;;
22711;SDS011;11523;50.390;8.072;2023-11-18T12:00:10;21.13;;;14.40;;
22711;SDS011;11523;50.390;8.072;2023-11-18T12:02:40;20.83;;;14.48;;
22711;SDS011;11523;50.390;8.072;2023-11-18T12:05:15;20.25;;;15.48;;
22711;SDS011;11523;50.390;8.072;2023-11-18T12:07:44;17.17;;;13.00;;
22711;SDS011;11523;50.390;8.072;2023-11-18T12:10:11;22.58;;;14.82;;
22711;SDS011;11523;50.390;8.072;2023-11-18T12:12:45;21.52;;;14.32;;
22711;SDS011;11523;50.390;8.072;2023-11-18T12:15:11;16.17;;;12.80;;
22711;SDS011;11523;50.390;8.072;2023-11-18T12:23:22;14.60;;;11.05;;
22711;SDS011;11523;50.390;8.072;2023-11-18T12:25:53;15.73;;;11.57;;
22711;SDS011;11523;50.390;8.072;2023-11-18T12:28:19;16.10;;;11.25;;
22711;SDS011;11523;50.390;8.072;2023-11-18T12:30:47;14.93;;;11.57;;
22711;SDS011;11523;50.390;8.072;2023-11-18T12:33:26;17.60;;;12.38;;
22711;SDS011;11523;50.390;8.072;2023-11-18T12:41:05;19.48;;;12.88;;
22711;SDS011;11523;50.390;8.072;2023-11-18T12:46:30;18.38;;;12.88;;
22711;SDS011;11523;50.390;8.072;2023-11-18T12:49:04;18.88;;;12.70;;
22711;SDS011;11523;50.390;8.072;2023-11-18T12:51:33;17.92;;;11.85;;
22711;SDS011;11523;50.390;8.072;2023-11-18T12:54:08;20.55;;;12.15;;
22711;SDS011;11523;50.390;8.072;2023-11-18T12:56:37;16.38;;;12.35;;
22711;SDS011;11523;50.390;8.072;2023-11-18T12:59:03;17.00;;;11.73;;
22711;SDS011;11523;50.390;8.072;2023-11-18T13:01:31;17.02;;;11.43;;
22711;SDS011;11523;50.390;8.072;2023-11-18T13:04:01;17.92;;;11.70;;
22711;SDS011;11523;50.390;8.072;2023-11-18T13:06:27;16.75;;;12.82;;
22711;SDS011;11523;50.390;8.072;2023-11-18T13:08:53;15.02;;;11.32;;
22711;SDS011;11523;50.390;8.072;2023-11-18T13:11:21;14.40;;;10.18;;
22711;SDS011;11523;50.390;8.072;2023-11-18T13:13:48;12.63;;;10.27;;
22711;SDS011;11523;50.390;8.072;2023-11-18T13:16:14;14.20;;;10.02;;
22711;SDS011;11523;50.390;8.072;2023-11-18T13:18:41;15.60;;;10.18;;
22711;SDS011;11523;50.390;8.072;2023-11-18T13:21:12;15.85;;;10.00;;
22711;SDS011;11523;50.390;8.072;2023-11-18T13:23:38;14.40;;;9.75;;
22711;SDS011;11523;50.390;8.072;2023-11-18T13:26:04;13.82;;;10.43;;
22711;SDS011;11523;50.390;8.072;2023-11-18T13:28:31;13.68;;;9.88;;
22711;SDS011;11523;50.390;8.072;2023-11-18T13:30:58;12.90;;;9.45;;
22711;SDS011;11523;50.390;8.072;2023-11-18T13:33:24;13.30;;;9.80;;
22711;SDS011;11523;50.390;8.072;2023-11-18T13:35:50;10.77;;;8.73;;
22711;SDS011;11523;50.390;8.072;2023-11-18T13:38:16;12.05;;;9.73;;
22711;SDS011;11523;50.390;8.072;2023-11-18T13:40:46;15.27;;;10.45;;
22711;SDS011;11523;50.390;8.072;2023-11-18T13:43:13;13.95;;;10.23;;
22711;SDS011;11523;50.390;8.072;2023-11-18T13:45:40;12.63;;;10.10;;
22711;SDS011;11523;50.390;8.072;2023-11-18T13:48:07;13.13;;;9.52;;
22711;SDS011;11523;50.390;8.072;2023-11-18T13:50:37;14.20;;;10.30;;
22711;SDS011;11523;50.390;8.072;2023-11-18T13:53:03;15.43;;;9.88;;
22711;SDS011;11523;50.390;8.072;2023-11-18T13:55:31;14.98;;;9.80;;
22711;SDS011;11523;50.390;8.072;2023-11-18T13:57:57;13.25;;;9.73;;
22711;SDS011;11523;50.390;8.072;2023-11-18T14:00:27;12.68;;;9.85;;
22711;SDS011;11523;50.390;8.072;2023-11-18T14:02:54;14.25;;;9.63;;
22711;SDS011;11523;50.390;8.072;2023-11-18T14:05:21;11.68;;;8.90;;
22711;SDS011;11523;50.390;8.072;2023-11-18T14:07:49;11.65;;;8.60;;
22711;SDS011;11523;50.390;8.072;2023-11-18T14:10:15;11.93;;;8.63;;
22711;SDS011;11523;50.390;8.072;2023-11-18T14:15:25;13.23;;;8.10;;
22711;SDS011;11523;50.390;8.072;2023-11-18T14:17:51;12.63;;;7.95;;
22711;SDS011;11523;50.390;8.072;2023-11-18T14:20:18;11.32;;;8.15;;
22711;SDS011;11523;50.390;8.072;2023-11-18T14:22:47;12.52;;;8.18;;
22711;SDS011;11523;50.390;8.072;2023-11-18T14:25:13;10.35;;;8.40;;
22711;SDS011;11523;50.390;8.072;2023-11-18T14:27:39;14.68;;;9.88;;
22711;SDS011;11523;50.390;8.072;2023-11-18T14:30:06;15.80;;;9.35;;
22711;SDS011;11523;50.390;8.072;2023-11-18T14:32:34;16.63;;;9.95;;
22711;SDS011;11523;50.390;8.072;2023-11-18T14:35:00;14.30;;;9.85;;
22711;SDS011;11523;50.390;8.072;2023-11-18T14:37:26;12.65;;;9.73;;
22711;SDS011;11523;50.390;8.072;2023-11-18T14:39:52;13.10;;;9.80;;
22711;SDS011;11523;50.390;8.072;2023-11-18T14:42:19;14.07;;;9.57;;
22711;SDS011;11523;50.390;8.072;2023-11-18T14:44:46;13.13;;;9.85;;
22711;SDS011;11523;50.390;8.072;2023-11-18T14:47:12;13.55;;;9.40;;
22711;SDS011;11523;50.390;8.072;2023-11-18T14:49:38;15.30;;;11.05;;
22711;SDS011;11523;50.390;8.072;2023-11-18T14:52:04;14.65;;;9.95;;